Time;durP1;ratioP1;P1;durP2;ratioP2;P2;SDS_P1;SDS_P2;PMS_P1;PMS_P2;Temp;Humidity;BMP_temperature;BMP_pressure;BME280_temperature;BME280_humidity;BME280_pressure;Samples;Min_cycle;Max_cycle;Signal;HPM_P1;HPM_P2
2024/01/27 00:00:49;;;;;;;3.93;2.17;;;3.70;96.40;;;;;;5093797;28;20669;-78
2024/01/27 00:03:16;;;;;;;6.57;2.23;;;3.80;96.10;;;;;;5088561;28;20196;-78
2024/01/27 00:05:44;;;;;;;4.10;2.20;;;3.80;96.20;;;;;;5084015;28;20221;-78
2024/01/27 00:08:11;;;;;;;7.73;3.03;;;3.80;96.30;;;;;;5080703;28;20209;-79
2024/01/27 00:10:37;;;;;;;6.77;2.70;;;3.80;96.40;;;;;;5088447;28;20680;-78
2024/01/27 00:13:04;;;;;;;6.27;2.47;;;3.80;96.30;;;;;;5091148;28;20204;-78
2024/01/27 00:15:31;;;;;;;8.60;3.17;;;3.70;96.50;;;;;;5085304;28;20197;-79
2024/01/27 00:17:58;;;;;;;9.37;3.50;;;3.70;96.60;;;;;;5089675;28;20211;-77
2024/01/27 00:20:25;;;;;;;7.43;3.77;;;3.50;96.60;;;;;;5080626;28;20197;-77
2024/01/27 00:22:53;;;;;;;9.63;3.90;;;3.40;96.90;;;;;;5084499;28;20208;-77
2024/01/27 00:25:20;;;;;;;7.77;3.50;;;3.40;97.00;;;;;;5077502;28;20193;-77
2024/01/27 00:27:46;;;;;;;7.77;3.73;;;3.40;97.20;;;;;;5087238;28;20204;-77
2024/01/27 00:30:14;;;;;;;9.17;3.40;;;3.40;97.30;;;;;;5081284;28;20203;-79
2024/01/27 00:32:41;;;;;;;9.27;3.07;;;3.40;97.50;;;;;;5086520;28;20204;-76
2024/01/27 00:35:08;;;;;;;5.57;2.73;;;3.40;97.70;;;;;;5083427;28;20197;-77
2024/01/27 00:37:35;;;;;;;6.40;2.33;;;3.30;97.50;;;;;;5087229;28;20197;-77
2024/01/27 00:40:05;;;;;;;6.27;2.70;;;3.40;97.40;;;;;;5080480;28;20193;-77
2024/01/27 00:42:31;;;;;;;8.67;2.60;;;3.40;97.30;;;;;;5089573;28;20672;-77
2024/01/27 00:44:58;;;;;;;7.50;2.60;;;3.50;96.80;;;;;;5085326;28;20204;-77
2024/01/27 00:47:25;;;;;;;5.37;2.47;;;3.50;96.70;;;;;;5085537;28;20251;-77
2024/01/27 00:49:53;;;;;;;5.53;2.80;;;3.50;96.60;;;;;;5090894;28;20649;-77
2024/01/27 00:52:20;;;;;;;6.63;2.77;;;3.50;96.90;;;;;;5093978;28;20207;-77
2024/01/27 00:54:47;;;;;;;6.50;3.10;;;3.50;97.10;;;;;;5077461;28;20201;-77
2024/01/27 00:57:15;;;;;;;8.97;3.33;;;3.60;96.90;;;;;;5086749;28;20208;-77
2024/01/27 00:59:42;;;;;;;7.70;3.87;;;3.70;96.70;;;;;;5084897;28;20196;-77
2024/01/27 01:02:09;;;;;;;10.93;4.57;;;3.70;96.20;;;;;;5086379;28;20654;-77
2024/01/27 01:04:36;;;;;;;17.13;6.57;;;3.70;96.80;;;;;;5090221;28;20215;-77
2024/01/27 01:07:03;;;;;;;20.50;9.83;;;3.60;96.50;;;;;;5081185;28;20225;-77
2024/01/27 01:09:29;;;;;;;20.20;10.50;;;3.50;96.70;;;;;;5090005;28;20192;-77
2024/01/27 01:11:56;;;;;;;18.60;9.70;;;3.40;97.30;;;;;;5086310;28;20197;-77
2024/01/27 01:14:24;;;;;;;18.40;8.60;;;3.50;97.20;;;;;;5085364;28;20207;-77
2024/01/27 01:16:51;;;;;;;12.27;6.53;;;3.60;97.20;;;;;;5087946;28;20201;-77
2024/01/27 01:19:18;;;;;;;14.10;6.20;;;3.70;96.90;;;;;;5085816;28;20201;-77
2024/01/27 01:21:44;;;;;;;10.20;5.20;;;3.60;97.10;;;;;;5078304;28;20607;-77
2024/01/27 01:24:11;;;;;;;7.63;3.17;;;3.60;96.90;;;;;;5093371;28;20641;-77
2024/01/27 01:26:38;;;;;;;7.50;4.03;;;3.40;97.00;;;;;;5090262;28;20226;-78
2024/01/27 01:29:06;;;;;;;6.17;3.77;;;3.30;97.90;;;;;;5088150;28;20196;-77
2024/01/27 01:31:34;;;;;;;5.20;3.23;;;3.20;98.40;;;;;;5080267;28;20202;-77
2024/01/27 01:34:01;;;;;;;5.83;2.77;;;3.20;98.40;;;;;;5081250;28;20197;-77
2024/01/27 01:36:27;;;;;;;6.33;2.40;;;3.10;98.20;;;;;;5079467;28;20192;-77
2024/01/27 01:38:54;;;;;;;5.50;2.60;;;3.00;98.80;;;;;;5080171;28;20204;-76
2024/01/27 01:41:21;;;;;;;7.20;2.50;;;3.00;98.70;;;;;;5082115;28;20270;-77
2024/01/27 01:43:48;;;;;;;4.57;2.10;;;2.90;99.00;;;;;;5086281;28;20205;-77
2024/01/27 01:46:14;;;;;;;8.10;2.70;;;2.90;99.70;;;;;;5088721;28;20227;-77
2024/01/27 01:48:43;;;;;;;4.70;2.40;;;2.90;99.40;;;;;;5079065;28;20206;-77
2024/01/27 01:51:10;;;;;;;6.87;2.23;;;3.00;99.10;;;;;;5085607;28;20212;-76
2024/01/27 01:53:37;;;;;;;4.47;2.13;;;3.10;98.20;;;;;;5095822;28;20667;-76
2024/01/27 01:56:05;;;;;;;5.57;2.50;;;3.10;97.90;;;;;;5089447;28;20219;-76
2024/01/27 01:58:34;;;;;;;7.37;2.20;;;3.10;98.00;;;;;;5086320;28;20197;-76
2024/01/27 02:01:01;;;;;;;5.33;1.93;;;3.00;98.20;;;;;;5081832;28;20288;-77
2024/01/27 02:03:27;;;;;;;4.00;2.07;;;2.90;98.30;;;;;;5084773;28;20231;-76
2024/01/27 02:05:56;;;;;;;3.17;2.03;;;2.90;98.60;;;;;;5077100;28;20705;-77
2024/01/27 02:08:23;;;;;;;5.97;2.40;;;2.90;98.80;;;;;;5093248;28;20207;-77
2024/01/27 02:10:50;;;;;;;7.70;1.90;;;2.90;98.30;;;;;;5086383;28;20203;-76
2024/01/27 02:13:19;;;;;;;8.17;2.20;;;2.90;98.10;;;;;;5084754;28;20203;-76
2024/01/27 02:15:46;;;;;;;4.10;1.93;;;3.00;97.50;;;;;;5087637;28;20216;-76
2024/01/27 02:18:13;;;;;;;6.87;2.33;;;3.00;97.30;;;;;;5088678;28;20204;-77
2024/01/27 02:20:40;;;;;;;7.23;2.30;;;3.00;97.30;;;;;;5085660;28;20200;-77
2024/01/27 02:23:08;;;;;;;7.33;2.10;;;2.90;97.60;;;;;;5085844;28;20206;-77
2024/01/27 02:25:36;;;;;;;7.73;2.47;;;2.90;97.70;;;;;;5083826;28;20197;-77
2024/01/27 02:28:03;;;;;;;4.97;1.97;;;2.80;97.80;;;;;;5087851;28;20701;-76
2024/01/27 02:30:30;;;;;;;4.00;1.93;;;2.80;97.80;;;;;;5089477;28;20249;-76
2024/01/27 02:32:58;;;;;;;6.23;2.50;;;2.90;97.70;;;;;;5091280;28;20211;-78
2024/01/27 02:35:25;;;;;;;5.60;2.00;;;2.80;97.20;;;;;;5086560;28;20203;-76
2024/01/27 02:37:52;;;;;;;4.00;1.90;;;2.90;96.80;;;;;;5085618;28;20208;-77
2024/01/27 02:40:18;;;;;;;5.60;2.10;;;2.90;97.00;;;;;;5082241;28;20197;-76
2024/01/27 02:42:46;;;;;;;3.87;1.93;;;2.90;96.60;;;;;;5080058;28;20197;-76
2024/01/27 02:45:13;;;;;;;6.43;1.83;;;3.00;96.50;;;;;;5075952;28;20208;-77
2024/01/27 02:47:40;;;;;;;5.70;1.83;;;3.00;96.20;;;;;;5082892;28;20263;-76
2024/01/27 02:50:08;;;;;;;6.50;1.90;;;3.10;95.50;;;;;;5082944;28;20200;-76
2024/01/27 02:52:35;;;;;;;6.83;2.03;;;3.00;95.90;;;;;;5077229;28;20204;-76
2024/01/27 02:55:02;;;;;;;5.17;1.90;;;2.90;96.20;;;;;;5081939;28;20200;-76
2024/01/27 02:57:29;;;;;;;7.90;2.27;;;2.80;96.20;;;;;;5088728;28;20201;-76
2024/01/27 02:59:57;;;;;;;5.00;1.87;;;2.90;96.50;;;;;;5082269;28;20197;-77
2024/01/27 03:02:23;;;;;;;4.57;1.67;;;2.80;96.60;;;;;;5085682;28;20200;-77
2024/01/27 03:04:50;;;;;;;5.20;2.10;;;2.80;96.70;;;;;;5080988;28;20209;-76
2024/01/27 03:07:17;;;;;;;4.57;1.90;;;2.80;96.90;;;;;;5089169;28;20216;-76
2024/01/27 03:09:44;;;;;;;7.90;1.87;;;2.80;96.90;;;;;;5083990;28;20211;-76
2024/01/27 03:12:11;;;;;;;5.83;2.00;;;2.80;97.10;;;;;;5080039;28;20193;-76
2024/01/27 03:14:38;;;;;;;6.20;2.10;;;2.70;97.00;;;;;;5083177;28;20204;-76
2024/01/27 03:17:07;;;;;;;6.53;2.10;;;2.70;96.80;;;;;;5093263;28;20853;-76
2024/01/27 03:19:33;;;;;;;5.43;2.00;;;2.70;96.90;;;;;;5085059;28;20661;-76
2024/01/27 03:22:00;;;;;;;5.40;2.03;;;2.70;97.10;;;;;;5089325;28;20193;-76
2024/01/27 03:24:27;;;;;;;5.43;1.90;;;2.80;97.00;;;;;;5086950;28;20203;-76
2024/01/27 03:26:53;;;;;;;4.10;1.80;;;2.80;96.60;;;;;;5083836;28;20224;-76
2024/01/27 03:29:20;;;;;;;3.77;1.83;;;2.70;96.80;;;;;;5091397;28;20196;-76
2024/01/27 03:31:49;;;;;;;3.83;1.50;;;2.80;96.80;;;;;;5080987;28;20193;-77
2024/01/27 03:34:19;;;;;;;3.67;1.80;;;2.80;96.90;;;;;;5083158;28;20196;-77
2024/01/27 03:36:49;;;;;;;8.90;2.33;;;2.80;96.70;;;;;;5085884;28;20204;-76
2024/01/27 03:39:16;;;;;;;3.53;1.73;;;2.80;97.10;;;;;;5098036;28;20199;-77
2024/01/27 03:41:42;;;;;;;7.43;2.00;;;2.80;97.20;;;;;;5090311;28;20192;-76
2024/01/27 03:44:09;;;;;;;4.00;1.70;;;2.80;97.20;;;;;;5087025;28;20201;-77
2024/01/27 03:46:38;;;;;;;7.57;2.23;;;2.80;97.20;;;;;;5084887;28;20692;-76
2024/01/27 03:49:05;;;;;;;3.43;1.90;;;2.80;97.10;;;;;;5088990;28;20208;-76
2024/01/27 03:51:33;;;;;;;4.97;2.00;;;2.70;97.10;;;;;;5084976;28;20196;-76
2024/01/27 03:54:00;;;;;;;4.73;2.37;;;2.70;97.10;;;;;;5089464;28;20197;-76
2024/01/27 03:56:27;;;;;;;8.93;1.97;;;2.70;97.10;;;;;;5090276;28;20200;-76
2024/01/27 03:58:54;;;;;;;5.63;1.73;;;2.70;97.10;;;;;;5091305;28;20209;-76
2024/01/27 04:01:20;;;;;;;5.57;1.93;;;2.70;97.00;;;;;;5096006;28;20192;-76
2024/01/27 04:03:47;;;;;;;4.60;2.10;;;2.70;97.00;;;;;;5089155;28;20197;-76
2024/01/27 04:06:14;;;;;;;4.30;2.10;;;2.80;96.90;;;;;;5092894;28;20739;-76
2024/01/27 04:08:44;;;;;;;6.03;1.93;;;2.80;96.80;;;;;;5082539;28;20193;-76
2024/01/27 04:11:20;;;;;;;3.77;1.80;;;2.70;96.70;;;;;;5086372;28;20201;-77
2024/01/27 04:13:46;;;;;;;8.73;2.17;;;2.60;97.10;;;;;;5090719;28;20196;-76
2024/01/27 04:16:13;;;;;;;6.43;1.93;;;2.70;96.90;;;;;;5091148;28;20197;-76
2024/01/27 04:18:40;;;;;;;7.40;2.00;;;2.70;97.20;;;;;;5085176;28;20201;-76
2024/01/27 04:21:07;;;;;;;4.60;2.20;;;2.70;97.00;;;;;;5080831;28;20200;-76
2024/01/27 04:23:34;;;;;;;7.23;2.20;;;2.70;96.90;;;;;;5097352;28;20551;-76
2024/01/27 04:26:03;;;;;;;5.93;1.93;;;2.60;96.90;;;;;;5088574;28;20209;-76
2024/01/27 04:28:30;;;;;;;3.20;1.90;;;2.70;96.90;;;;;;5089407;28;20246;-76
2024/01/27 04:30:57;;;;;;;5.23;2.00;;;2.60;96.70;;;;;;5091979;28;20223;-76
2024/01/27 04:33:23;;;;;;;5.03;2.00;;;2.60;96.90;;;;;;5082614;28;20645;-76
2024/01/27 04:35:50;;;;;;;8.83;2.00;;;2.60;97.00;;;;;;5088699;28;20661;-77
2024/01/27 04:38:17;;;;;;;7.03;2.00;;;2.50;97.20;;;;;;5086322;28;20573;-76
2024/01/27 04:40:44;;;;;;;6.93;1.83;;;2.50;97.60;;;;;;5078294;28;20204;-76
2024/01/27 04:43:16;;;;;;;5.43;1.70;;;2.50;97.60;;;;;;5094578;28;20204;-77
2024/01/27 04:45:43;;;;;;;4.87;1.87;;;2.50;97.40;;;;;;5082199;28;20255;-76
2024/01/27 04:48:09;;;;;;;4.17;2.10;;;2.40;97.40;;;;;;5077352;28;20228;-76
2024/01/27 04:50:36;;;;;;;6.33;2.10;;;2.50;97.50;;;;;;5085950;28;20238;-77
2024/01/27 04:53:04;;;;;;;4.77;1.67;;;2.50;97.60;;;;;;5085277;28;20220;-76
2024/01/27 04:55:30;;;;;;;3.87;1.80;;;2.50;97.60;;;;;;5085816;28;20204;-77
2024/01/27 04:57:58;;;;;;;5.87;2.20;;;2.50;97.40;;;;;;5090616;28;20204;-76
2024/01/27 05:00:28;;;;;;;8.03;2.10;;;2.50;97.40;;;;;;5092161;28;20250;-77
2024/01/27 05:02:55;;;;;;;5.67;2.27;;;2.40;97.60;;;;;;5081323;28;20632;-76
2024/01/27 05:05:22;;;;;;;4.97;2.07;;;2.40;97.60;;;;;;5085358;28;20208;-76
2024/01/27 05:07:49;;;;;;;6.33;2.23;;;2.40;97.80;;;;;;5086820;28;20212;-77
2024/01/27 05:10:16;;;;;;;5.00;2.30;;;2.40;97.90;;;;;;5085591;28;20192;-76
2024/01/27 05:12:43;;;;;;;6.40;2.03;;;2.40;97.70;;;;;;5082933;28;20201;-76
2024/01/27 05:15:11;;;;;;;5.63;2.23;;;2.50;97.80;;;;;;5105486;28;20204;-76
2024/01/27 05:17:39;;;;;;;7.63;2.00;;;2.60;97.30;;;;;;5096563;28;20660;-76
2024/01/27 05:20:08;;;;;;;9.23;2.30;;;2.50;97.20;;;;;;5089503;28;20200;-76
2024/01/27 05:22:34;;;;;;;4.10;2.00;;;2.50;97.20;;;;;;5086955;28;20211;-76
2024/01/27 05:25:01;;;;;;;8.50;2.40;;;2.40;97.60;;;;;;5087755;28;20197;-76
2024/01/27 05:27:28;;;;;;;7.67;2.00;;;2.40;97.80;;;;;;5080883;28;20668;-76
2024/01/27 05:29:55;;;;;;;7.13;2.10;;;2.40;97.80;;;;;;5078268;28;20198;-76
2024/01/27 05:32:22;;;;;;;6.57;2.27;;;2.50;97.90;;;;;;5085376;28;20197;-76
2024/01/27 05:34:50;;;;;;;4.67;2.17;;;2.50;97.50;;;;;;5080395;28;20193;-76
2024/01/27 05:37:16;;;;;;;8.03;2.33;;;2.40;97.40;;;;;;5086965;28;20200;-76
2024/01/27 05:39:43;;;;;;;5.87;2.37;;;2.30;97.70;;;;;;5083610;28;20203;-76
2024/01/27 05:42:10;;;;;;;4.70;2.10;;;2.20;97.70;;;;;;5077110;28;20197;-76
2024/01/27 05:44:37;;;;;;;9.13;2.40;;;2.20;98.10;;;;;;5081176;28;20189;-76
2024/01/27 05:47:05;;;;;;;5.80;2.57;;;2.10;98.40;;;;;;5084359;28;20220;-76
2024/01/27 05:49:31;;;;;;;7.67;2.47;;;2.00;98.70;;;;;;5087595;28;20209;-76
2024/01/27 05:51:59;;;;;;;5.00;2.60;;;2.00;98.90;;;;;;5083989;28;20194;-76
2024/01/27 05:54:26;;;;;;;9.20;2.50;;;2.00;99.20;;;;;;5088824;28;20204;-76
2024/01/27 05:56:53;;;;;;;6.23;2.50;;;2.00;99.60;;;;;;5077754;28;20207;-77
2024/01/27 05:59:20;;;;;;;4.97;2.20;;;2.00;99.50;;;;;;5084177;28;20200;-76
2024/01/27 06:01:47;;;;;;;6.10;2.37;;;2.00;99.10;;;;;;5091883;28;20188;-76
2024/01/27 06:04:13;;;;;;;5.97;2.23;;;2.10;99.00;;;;;;5083487;28;20221;-77
2024/01/27 06:06:40;;;;;;;5.90;2.70;;;2.00;98.90;;;;;;5074034;28;20216;-76
2024/01/27 06:09:10;;;;;;;6.37;2.47;;;2.00;99.10;;;;;;5085427;28;20884;-76
2024/01/27 06:11:38;;;;;;;6.23;2.40;;;1.90;99.30;;;;;;5081491;28;20196;-76
2024/01/27 06:14:04;;;;;;;4.90;2.60;;;1.90;99.60;;;;;;5082641;28;20219;-77
2024/01/27 06:16:31;;;;;;;5.47;2.33;;;1.90;99.90;;;;;;5084153;28;20200;-77
2024/01/27 06:18:58;;;;;;;9.10;2.40;;;2.00;99.60;;;;;;5088777;28;20208;-77
2024/01/27 06:21:26;;;;;;;6.20;2.40;;;2.00;99.40;;;;;;5086107;28;20232;-77
2024/01/27 06:23:52;;;;;;;5.27;2.50;;;2.00;99.20;;;;;;5085675;28;20219;-76
2024/01/27 06:26:21;;;;;;;4.27;2.30;;;2.00;99.20;;;;;;5084534;28;20197;-76
2024/01/27 06:28:48;;;;;;;4.43;2.40;;;2.00;99.40;;;;;;5079429;28;20610;-76
2024/01/27 06:31:16;;;;;;;5.37;2.30;;;1.90;99.40;;;;;;5088896;28;20212;-76
2024/01/27 06:33:43;;;;;;;4.87;2.43;;;1.80;99.60;;;;;;5090441;28;20209;-76
2024/01/27 06:36:10;;;;;;;9.40;2.90;;;1.80;99.60;;;;;;5078533;28;20201;-76
2024/01/27 06:38:38;;;;;;;7.63;2.50;;;1.80;99.70;;;;;;5079475;28;20652;-76
2024/01/27 06:41:05;;;;;;;11.03;2.73;;;1.80;99.90;;;;;;5086910;28;20197;-76
2024/01/27 06:43:33;;;;;;;6.13;2.77;;;1.70;99.90;;;;;;5085505;28;20193;-76
2024/01/27 06:46:00;;;;;;;7.40;2.70;;;1.80;99.90;;;;;;5087515;28;20212;-74
2024/01/27 06:48:26;;;;;;;5.57;2.87;;;1.80;99.90;;;;;;5082612;28;20236;-76
2024/01/27 06:50:53;;;;;;;8.60;2.80;;;1.80;99.90;;;;;;5082517;28;20205;-76
2024/01/27 06:53:20;;;;;;;6.37;2.60;;;1.90;99.90;;;;;;5077792;28;20204;-76
2024/01/27 06:55:47;;;;;;;8.87;2.90;;;1.90;99.60;;;;;;5078437;28;20658;-76
2024/01/27 06:58:14;;;;;;;4.70;2.67;;;2.00;99.60;;;;;;5083346;28;20208;-77
2024/01/27 07:00:42;;;;;;;4.23;2.60;;;2.00;99.60;;;;;;5086340;28;20204;-76
2024/01/27 07:03:09;;;;;;;5.80;2.57;;;2.00;99.50;;;;;;5079908;28;20203;-76
2024/01/27 07:05:40;;;;;;;7.87;2.70;;;2.10;99.60;;;;;;5093129;28;20216;-76
2024/01/27 07:08:07;;;;;;;7.70;2.90;;;2.00;99.50;;;;;;5094322;28;20204;-76
2024/01/27 07:10:34;;;;;;;10.63;2.90;;;2.20;99.10;;;;;;5093479;28;20200;-76
2024/01/27 07:13:01;;;;;;;6.90;2.70;;;2.20;98.60;;;;;;5086786;28;20204;-76
2024/01/27 07:15:27;;;;;;;9.13;2.77;;;2.20;98.40;;;;;;5094798;28;20192;-76
2024/01/27 07:17:56;;;;;;;6.37;2.87;;;2.10;98.70;;;;;;5085972;28;20197;-76
2024/01/27 07:20:24;;;;;;;7.00;2.53;;;2.00;99.00;;;;;;5084551;28;20278;-76
2024/01/27 07:22:50;;;;;;;5.57;2.63;;;1.90;99.60;;;;;;5084584;28;20938;-77
2024/01/27 07:25:17;;;;;;;5.70;2.67;;;2.00;99.60;;;;;;5082649;28;20271;-75
2024/01/27 07:27:44;;;;;;;5.03;2.43;;;2.00;99.60;;;;;;5090046;28;20228;-77
2024/01/27 07:30:12;;;;;;;8.23;2.77;;;2.10;99.30;;;;;;5088521;28;20250;-76
2024/01/27 07:32:40;;;;;;;5.00;2.93;;;2.20;99.00;;;;;;5085809;28;20217;-76
2024/01/27 07:35:09;;;;;;;7.33;3.00;;;2.10;99.10;;;;;;5085337;28;20649;-76
2024/01/27 07:37:36;;;;;;;5.30;2.33;;;2.20;99.30;;;;;;5082431;28;20200;-75
2024/01/27 07:40:03;;;;;;;3.10;2.37;;;2.20;99.00;;;;;;5084218;28;20198;-76
2024/01/27 07:42:30;;;;;;;7.90;3.07;;;2.20;99.00;;;;;;5089422;28;20683;-76
2024/01/27 07:44:57;;;;;;;6.67;2.70;;;2.30;98.70;;;;;;5086344;28;20205;-76
2024/01/27 07:47:24;;;;;;;4.87;2.60;;;2.30;98.70;;;;;;5089548;28;20710;-76
2024/01/27 07:49:50;;;;;;;8.43;2.93;;;2.30;98.60;;;;;;5094941;28;20189;-76
2024/01/27 07:52:19;;;;;;;6.80;3.27;;;2.20;98.60;;;;;;5088018;28;20196;-75
2024/01/27 07:54:46;;;;;;;6.50;3.40;;;2.00;99.10;;;;;;5084893;28;20199;-75
2024/01/27 07:57:12;;;;;;;7.63;3.23;;;2.00;99.60;;;;;;5066896;28;20234;-76
2024/01/27 07:59:39;;;;;;;9.83;2.80;;;2.00;99.60;;;;;;5078462;28;20208;-76
2024/01/27 08:02:06;;;;;;;5.90;3.00;;;2.00;99.60;;;;;;5088968;28;20717;-76
2024/01/27 08:04:33;;;;;;;7.40;2.67;;;2.30;99.90;;;;;;5084423;28;20241;-76
2024/01/27 08:07:05;;;;;;;5.93;3.10;;;2.90;99.80;;;;;;5083343;28;20197;-78
2024/01/27 08:09:34;;;;;;;8.43;2.90;;;3.70;96.50;;;;;;5093396;28;20264;-79
2024/01/27 08:12:01;;;;;;;6.63;2.40;;;4.00;94.60;;;;;;5085755;28;20677;-79
2024/01/27 08:14:29;;;;;;;4.80;2.90;;;3.90;94.30;;;;;;5068782;28;20235;-79
2024/01/27 08:16:56;;;;;;;4.83;2.70;;;3.80;94.80;;;;;;5086297;28;20559;-79
2024/01/27 08:19:24;;;;;;;8.13;3.47;;;3.80;94.90;;;;;;5092337;28;20197;-79
2024/01/27 08:21:51;;;;;;;7.30;3.07;;;3.90;94.50;;;;;;5082752;28;20657;-79
2024/01/27 08:24:18;;;;;;;5.30;3.30;;;3.90;93.80;;;;;;5084392;28;20199;-78
2024/01/27 08:26:48;;;;;;;5.50;3.30;;;3.80;94.30;;;;;;5089333;28;20192;-78
2024/01/27 08:29:14;;;;;;;5.73;2.90;;;3.90;94.40;;;;;;5087748;28;20213;-78
2024/01/27 08:31:41;;;;;;;7.57;2.83;;;3.80;94.20;;;;;;5087225;28;20207;-78
2024/01/27 08:34:08;;;;;;;6.20;2.87;;;3.90;94.40;;;;;;5085037;28;20197;-78
2024/01/27 08:36:35;;;;;;;8.00;3.33;;;4.00;94.40;;;;;;5082548;28;20193;-78
2024/01/27 08:39:03;;;;;;;5.97;3.00;;;4.00;94.50;;;;;;5081439;28;20202;-78
2024/01/27 08:41:33;;;;;;;7.33;3.20;;;4.20;94.90;;;;;;5080774;28;20198;-79
2024/01/27 08:44:01;;;;;;;6.63;3.40;;;4.50;93.30;;;;;;5091739;28;20193;-78
2024/01/27 08:46:28;;;;;;;7.73;3.30;;;4.80;91.90;;;;;;5087854;28;20304;-81
2024/01/27 08:48:57;;;;;;;5.17;3.13;;;4.70;92.90;;;;;;5092091;28;20225;-79
2024/01/27 08:51:24;;;;;;;9.17;3.30;;;4.60;93.10;;;;;;5087564;28;20199;-78
2024/01/27 08:53:51;;;;;;;7.37;3.67;;;4.60;93.50;;;;;;5085712;28;20201;-81
2024/01/27 08:56:18;;;;;;;10.75;3.78;;;4.90;92.80;;;;;;5081205;28;20197;-81
2024/01/27 08:58:47;;;;;;;8.20;3.47;;;5.30;91.50;;;;;;5089819;28;20217;-80
2024/01/27 09:01:17;;;;;;;9.93;3.60;;;5.50;90.60;;;;;;5082666;28;20287;-81
2024/01/27 09:03:43;;;;;;;8.88;3.40;;;5.80;90.40;;;;;;5081044;28;20200;-81
2024/01/27 09:06:10;;;;;;;8.45;3.20;;;6.00;89.60;;;;;;5084244;28;20279;-81
2024/01/27 09:08:37;;;;;;;7.55;3.10;;;6.10;89.70;;;;;;5090253;28;20231;-80
2024/01/27 09:11:04;;;;;;;6.35;3.05;;;6.40;86.50;;;;;;5088358;28;20923;-81
2024/01/27 09:13:31;;;;;;;12.15;3.75;;;6.80;81.00;;;;;;5087183;28;20725;-81
2024/01/27 09:15:58;;;;;;;8.93;3.20;;;7.10;71.90;;;;;;5077072;28;20208;-81
2024/01/27 09:18:27;;;;;;;7.38;3.50;;;7.50;73.50;;;;;;5088546;28;20197;-81
2024/01/27 09:20:54;;;;;;;8.75;3.05;;;8.10;64.10;;;;;;5085617;28;20192;-81
2024/01/27 09:23:21;;;;;;;10.90;3.75;;;9.00;50.50;;;;;;5078610;28;20194;-79
2024/01/27 09:25:47;;;;;;;9.10;3.33;;;9.50;41.80;;;;;;5086745;28;20205;-79
2024/01/27 09:28:15;;;;;;;9.00;3.42;;;9.50;41.50;;;;;;5087667;28;20221;-80
2024/01/27 09:30:45;;;;;;;5.60;3.10;;;10.30;35.70;;;;;;5082609;28;20295;-79
2024/01/27 09:33:12;;;;;;;10.07;3.40;;;10.10;36.70;;;;;;5092109;28;20205;-77
2024/01/27 09:35:40;;;;;;;8.27;2.90;;;10.80;35.80;;;;;;5091265;28;20196;-79
2024/01/27 09:38:09;;;;;;;8.10;3.08;;;11.30;27.60;;;;;;5092126;28;20208;-76
2024/01/27 09:40:36;;;;;;;5.50;3.00;;;12.30;24.50;;;;;;5088414;28;20199;-77
2024/01/27 09:43:03;;;;;;;7.00;2.85;;;12.70;21.30;;;;;;5086919;28;20630;-76
2024/01/27 09:45:30;;;;;;;7.32;3.30;;;12.80;20.50;;;;;;5090891;28;20196;-77
2024/01/27 09:47:59;;;;;;;7.00;3.05;;;13.10;18.50;;;;;;5091697;28;20205;-76
2024/01/27 09:50:25;;;;;;;7.50;2.95;;;13.10;18.20;;;;;;5087311;28;20547;-76
2024/01/27 09:52:54;;;;;;;6.15;2.47;;;13.30;18.00;;;;;;5089425;28;20204;-76
2024/01/27 09:55:21;;;;;;;9.82;2.97;;;12.60;19.20;;;;;;5086075;28;20600;-76
2024/01/27 09:57:48;;;;;;;4.60;2.40;;;12.20;19.80;;;;;;5085750;28;20784;-76
2024/01/27 10:00:17;;;;;;;7.50;2.92;;;12.10;20.70;;;;;;5087876;28;20212;-76
2024/01/27 10:02:46;;;;;;;8.27;3.35;;;11.70;20.80;;;;;;5081243;28;20306;-76
2024/01/27 10:05:14;;;;;;;8.52;3.08;;;12.00;20.10;;;;;;5084289;28;20867;-77
2024/01/27 10:07:41;;;;;;;9.75;3.53;;;11.40;20.60;;;;;;5082604;28;20218;-77
2024/01/27 10:10:10;;;;;;;6.78;3.58;;;10.90;23.80;;;;;;5064515;28;20217;-78
2024/01/27 10:12:42;;;;;;;12.02;3.38;;;10.60;24.10;;;;;;5083326;28;20233;-77
2024/01/27 10:15:20;;;;;;;8.25;2.90;;;10.00;23.70;;;;;;5081061;28;20227;-77
2024/01/27 10:17:47;;;;;;;8.10;3.25;;;10.30;27.00;;;;;;5087010;28;20200;-78
2024/01/27 10:20:15;;;;;;;9.68;3.42;;;10.80;24.30;;;;;;5082479;28;20283;-77
2024/01/27 10:22:42;;;;;;;7.20;3.33;;;10.70;24.20;;;;;;5077019;28;20204;-78
2024/01/27 10:25:11;;;;;;;8.15;3.45;;;10.60;24.20;;;;;;5084550;28;20194;-77
2024/01/27 10:27:38;;;;;;;8.10;3.30;;;10.50;24.10;;;;;;5081643;28;20673;-77
2024/01/27 10:30:07;;;;;;;10.05;3.65;;;11.50;21.50;;;;;;5083914;28;20224;-78
2024/01/27 10:32:34;;;;;;;7.28;3.22;;;10.80;23.60;;;;;;5088582;28;20200;-77
2024/01/27 10:35:04;;;;;;;7.50;3.17;;;11.10;24.50;;;;;;5077515;28;20562;-78
2024/01/27 10:37:31;;;;;;;9.23;3.70;;;11.60;21.50;;;;;;5081482;28;20200;-78
2024/01/27 10:40:02;;;;;;;7.43;3.33;;;12.30;18.60;;;;;;5093412;28;20276;-77
2024/01/27 10:42:31;;;;;;;9.27;3.10;;;12.60;17.80;;;;;;5086607;28;20560;-77
2024/01/27 10:45:00;;;;;;;7.20;2.95;;;12.30;19.10;;;;;;5080298;28;20208;-78
2024/01/27 10:47:28;;;;;;;8.52;3.10;;;13.10;17.20;;;;;;5084046;28;20198;-78
2024/01/27 10:49:57;;;;;;;8.93;3.63;;;13.40;16.80;;;;;;5073511;28;20233;-78
2024/01/27 10:52:28;;;;;;;9.50;3.35;;;12.40;18.70;;;;;;5086347;28;20194;-77
2024/01/27 10:54:59;;;;;;;7.72;3.10;;;11.50;18.70;;;;;;5086948;28;20193;-78
2024/01/27 10:57:27;;;;;;;6.93;3.05;;;11.00;22.10;;;;;;5081983;28;20602;-78
2024/01/27 10:59:57;;;;;;;6.40;2.85;;;11.20;21.30;;;;;;5077936;28;20201;-77
2024/01/27 11:02:24;;;;;;;9.15;3.35;;;10.60;24.10;;;;;;5092928;28;20200;-77
2024/01/27 11:04:52;;;;;;;7.10;3.28;;;10.10;23.70;;;;;;5082310;28;20216;-77
2024/01/27 11:07:21;;;;;;;6.85;3.35;;;10.80;24.70;;;;;;5080634;28;20900;-78
2024/01/27 11:09:50;;;;;;;7.78;3.50;;;10.50;24.10;;;;;;5080783;28;20262;-78
2024/01/27 11:12:18;;;;;;;12.15;3.28;;;9.70;24.80;;;;;;5088716;28;20212;-77
2024/01/27 11:14:46;;;;;;;10.05;3.50;;;9.30;27.30;;;;;;5084528;28;20220;-78
2024/01/27 11:17:14;;;;;;;7.53;3.13;;;9.70;24.80;;;;;;5078506;28;20275;-80
2024/01/27 11:19:41;;;;;;;5.95;2.90;;;10.20;23.70;;;;;;5084870;28;20198;-80
2024/01/27 11:22:08;;;;;;;5.72;2.70;;;10.20;23.80;;;;;;5089919;28;20200;-78
2024/01/27 11:24:34;;;;;;;6.43;3.20;;;9.50;24.70;;;;;;5085242;28;20208;-81
2024/01/27 11:27:02;;;;;;;6.93;3.10;;;9.00;26.40;;;;;;5083378;28;20196;-82
2024/01/27 11:29:29;;;;;;;7.95;3.17;;;8.50;28.60;;;;;;5086423;28;20223;-82
2024/01/27 11:31:56;;;;;;;10.27;3.20;;;8.30;30.10;;;;;;5085277;28;20224;-81
2024/01/27 11:34:25;;;;;;;8.25;3.30;;;7.90;35.00;;;;;;5082349;28;20193;-81
2024/01/27 11:36:52;;;;;;;12.82;3.50;;;8.00;34.00;;;;;;5073762;28;20201;-82
2024/01/27 11:39:29;;;;;;;11.63;3.47;;;7.90;35.00;;;;;;5083740;28;20249;-81
2024/01/27 11:42:06;;;;;;;7.18;3.03;;;7.60;36.30;;;;;;5087216;28;20197;-81
2024/01/27 11:44:37;;;;;;;9.32;3.30;;;7.30;38.30;;;;;;5082074;28;20197;-83
2024/01/27 11:47:05;;;;;;;6.32;2.85;;;7.50;38.10;;;;;;5092482;28;20226;-81
2024/01/27 11:49:37;;;;;;;6.57;2.97;;;7.70;36.10;;;;;;5095684;28;20272;-81
2024/01/27 11:52:05;;;;;;;6.63;3.05;;;8.00;35.10;;;;;;5084723;28;20238;-82
2024/01/27 11:54:32;;;;;;;7.45;3.00;;;7.90;33.60;;;;;;5088838;28;20638;-84
2024/01/27 11:56:59;;;;;;;7.35;3.30;;;7.80;35.70;;;;;;5082624;28;20188;-81
2024/01/27 11:59:26;;;;;;;6.43;2.90;;;7.70;34.50;;;;;;5085002;28;20201;-81
2024/01/27 12:01:52;;;;;;;6.32;2.45;;;7.40;35.10;;;;;;5093195;28;20199;-81
2024/01/27 12:04:21;;;;;;;12.50;3.05;;;7.20;36.00;;;;;;5086596;28;20223;-82
2024/01/27 12:06:49;;;;;;;7.90;3.40;;;7.00;37.40;;;;;;5089073;28;20299;-79
2024/01/27 12:09:17;;;;;;;9.15;3.00;;;6.90;39.90;;;;;;5090077;28;20224;-79
2024/01/27 12:11:45;;;;;;;9.63;3.20;;;7.10;41.70;;;;;;5081510;28;20243;-79
2024/01/27 12:14:12;;;;;;;8.15;2.97;;;7.00;40.40;;;;;;5088000;28;20247;-81
2024/01/27 12:16:39;;;;;;;6.03;3.08;;;7.00;39.70;;;;;;5093266;28;20200;-81
2024/01/27 12:19:06;;;;;;;5.32;3.15;;;7.20;39.20;;;;;;5085910;28;20200;-81
2024/01/27 12:21:33;;;;;;;8.25;2.58;;;7.30;41.80;;;;;;5078098;28;20189;-81
2024/01/27 12:24:01;;;;;;;5.50;2.85;;;7.30;39.00;;;;;;5086164;28;20683;-82
2024/01/27 12:26:30;;;;;;;12.32;3.20;;;7.40;40.50;;;;;;5084334;28;20201;-81
2024/01/27 12:28:58;;;;;;;6.50;2.85;;;7.40;40.20;;;;;;5084633;28;20203;-81
2024/01/27 12:31:26;;;;;;;10.30;3.83;;;7.40;40.40;;;;;;5084928;28;20204;-82
2024/01/27 12:33:55;;;;;;;6.88;3.25;;;7.50;40.00;;;;;;5093877;28;20208;-81
2024/01/27 12:36:22;;;;;;;6.65;2.72;;;7.50;38.90;;;;;;5079450;28;20227;-81
2024/01/27 12:38:54;;;;;;;7.47;3.00;;;7.50;37.90;;;;;;5080862;28;20259;-78
2024/01/27 12:41:22;;;;;;;12.15;5.30;;;7.50;36.70;;;;;;5091205;28;20208;-78
2024/01/27 12:43:49;;;;;;;8.32;2.80;;;7.50;38.30;;;;;;5089052;28;20195;-78
2024/01/27 12:46:16;;;;;;;8.57;2.35;;;7.60;33.70;;;;;;5088630;28;20208;-81
2024/01/27 12:48:43;;;;;;;4.75;2.63;;;7.60;32.50;;;;;;5085743;28;20203;-80
2024/01/27 12:51:10;;;;;;;6.22;2.70;;;7.50;32.10;;;;;;5087140;28;20220;-82
2024/01/27 12:53:41;;;;;;;11.48;2.95;;;7.40;34.50;;;;;;5087066;28;20212;-81
2024/01/27 12:56:08;;;;;;;4.82;2.55;;;7.40;34.10;;;;;;5082090;28;20279;-79